createdAt,value
2023-03-28T00:01:06.592Z,2.05
2023-03-28T00:03:36.480Z,1.10
2023-03-28T00:06:09.567Z,1.05
2023-03-28T00:08:39.462Z,1.08
2023-03-28T00:11:08.903Z,0.88
2023-03-28T00:13:36.427Z,0.90
2023-03-28T00:16:05.810Z,1.63
2023-03-28T00:18:37.517Z,1.17
2023-03-28T00:21:04.237Z,1.10
2023-03-28T00:23:31.132Z,0.90
2023-03-28T00:25:57.801Z,1.40
2023-03-28T00:28:24.472Z,1.10
2023-03-28T00:30:51.053Z,1.30
2023-03-28T00:33:18.444Z,1.00
2023-03-28T00:35:44.976Z,1.10
2023-03-28T00:38:13.862Z,1.00
2023-03-28T00:40:40.553Z,1.13
2023-03-28T00:43:07.342Z,1.65
2023-03-28T00:45:33.968Z,1.10
2023-03-28T00:48:05.300Z,1.20
2023-03-28T00:50:38.743Z,1.25
2023-03-28T00:53:16.756Z,1.92
2023-03-28T00:55:53.318Z,1.20
2023-03-28T00:58:26.777Z,1.00
2023-03-28T01:00:57.325Z,0.90
2023-03-28T01:03:27.933Z,1.23
2023-03-28T01:05:55.409Z,1.63
2023-03-28T01:08:30.466Z,1.58
2023-03-28T01:10:57.085Z,1.00
2023-03-28T01:13:31.352Z,1.30
2023-03-28T01:15:59.567Z,1.38
2023-03-28T01:18:26.506Z,1.02
2023-03-28T01:21:05.204Z,1.30
2023-03-28T01:23:52.804Z,1.40
2023-03-28T01:26:49.116Z,1.27
2023-03-28T01:29:45.784Z,1.30
2023-03-28T01:32:46.717Z,1.08
2023-03-28T01:35:37.066Z,1.25
2023-03-28T01:38:35.839Z,1.42
2023-03-28T01:41:20.526Z,1.20
2023-03-28T01:44:06.164Z,2.13
2023-03-28T01:46:39.004Z,1.98
2023-03-28T01:49:21.895Z,2.85
2023-03-28T01:51:57.343Z,1.50
2023-03-28T01:54:30.124Z,1.75
2023-03-28T01:57:10.488Z,2.20
2023-03-28T01:59:48.434Z,1.55
2023-03-28T02:02:45.862Z,1.50
2023-03-28T02:05:34.507Z,1.42
2023-03-28T02:08:04.451Z,1.38
2023-03-28T02:10:41.296Z,1.63
2023-03-28T02:13:34.063Z,1.33
2023-03-28T02:16:23.057Z,1.23
2023-03-28T02:19:09.622Z,3.13
2023-03-28T02:22:11.709Z,1.40
2023-03-28T02:24:57.760Z,1.83
2023-03-28T02:27:36.820Z,1.20
2023-03-28T02:30:21.608Z,1.10
2023-03-28T02:32:50.543Z,1.20
2023-03-28T02:35:24.917Z,1.60
2023-03-28T02:38:11.322Z,1.05
2023-03-28T02:40:54.189Z,1.10
2023-03-28T02:43:31.165Z,1.08
2023-03-28T02:46:14.741Z,1.20
2023-03-28T02:48:48.512Z,1.55
2023-03-28T02:51:46.325Z,1.13
2023-03-28T02:54:41.850Z,1.10
2023-03-28T02:57:33.531Z,1.60
2023-03-28T03:00:12.000Z,1.35
2023-03-28T03:02:40.491Z,1.40
2023-03-28T03:05:07.516Z,1.65
2023-03-28T03:07:34.043Z,2.13
2023-03-28T03:10:01.252Z,1.65
2023-03-28T03:12:30.371Z,2.00
2023-03-28T03:15:01.140Z,1.70
2023-03-28T03:17:47.857Z,2.30
2023-03-28T03:20:15.790Z,2.80
2023-03-28T03:22:42.340Z,1.85
2023-03-28T03:25:09.457Z,2.28
2023-03-28T03:27:46.873Z,2.38
2023-03-28T03:30:13.925Z,2.30
2023-03-28T03:33:00.860Z,1.80
2023-03-28T03:35:33.446Z,2.33
2023-03-28T03:38:04.243Z,2.30
2023-03-28T03:40:30.876Z,2.45
2023-03-28T03:42:57.936Z,4.32
2023-03-28T03:45:24.655Z,2.75
2023-03-28T03:47:51.312Z,1.75
2023-03-28T03:50:17.922Z,1.90
2023-03-28T03:52:44.470Z,2.05
2023-03-28T03:55:11.590Z,3.60
2023-03-28T03:57:40.166Z,2.70
2023-03-28T04:00:11.815Z,2.13
2023-03-28T04:02:48.243Z,1.97
2023-03-28T04:05:21.094Z,1.63
2023-03-28T04:08:01.604Z,1.83
2023-03-28T04:10:33.411Z,1.75
2023-03-28T04:13:00.249Z,1.95
2023-03-28T04:15:26.954Z,1.83
2023-03-28T04:17:59.746Z,2.30
2023-03-28T04:20:29.683Z,1.98
2023-03-28T04:23:05.696Z,1.67
2023-03-28T04:25:32.966Z,2.60
2023-03-28T04:28:04.650Z,1.42
2023-03-28T04:30:38.158Z,1.60
2023-03-28T04:33:28.445Z,2.72
2023-03-28T04:36:02.377Z,2.20
2023-03-28T04:38:36.064Z,1.45
2023-03-28T04:41:20.847Z,1.50
2023-03-28T04:44:09.888Z,1.50
2023-03-28T04:46:43.587Z,1.67
2023-03-28T04:49:13.148Z,1.80
2023-03-28T04:51:39.857Z,1.73
2023-03-28T04:54:06.705Z,2.38
2023-03-28T04:57:02.540Z,1.70
2023-03-28T04:59:37.868Z,3.00
2023-03-28T05:02:04.465Z,2.30
2023-03-28T05:04:42.427Z,2.42
2023-03-28T05:07:09.414Z,1.85
2023-03-28T05:09:36.240Z,2.00
2023-03-28T05:12:03.260Z,1.90
2023-03-28T05:14:32.886Z,1.77
2023-03-28T05:17:11.629Z,2.72
2023-03-28T05:19:52.026Z,2.92
2023-03-28T05:22:21.810Z,2.60
2023-03-28T05:24:48.398Z,1.98
2023-03-28T05:27:20.156Z,1.63
2023-03-28T05:29:47.578Z,2.00
2023-03-28T05:32:14.608Z,1.80
2023-03-28T05:34:41.828Z,1.70
2023-03-28T05:37:09.390Z,2.40
2023-03-28T05:40:02.483Z,1.92
2023-03-28T05:42:31.205Z,1.55
2023-03-28T05:44:57.760Z,2.00
2023-03-28T05:47:38.353Z,2.95
2023-03-28T05:50:05.432Z,1.77
2023-03-28T05:52:31.919Z,1.75
2023-03-28T05:54:58.559Z,2.13
2023-03-28T05:57:25.281Z,1.80
2023-03-28T05:59:53.776Z,2.00
2023-03-28T06:02:23.023Z,2.15
2023-03-28T06:04:53.838Z,1.50
2023-03-28T06:07:31.517Z,2.22
2023-03-28T06:10:08.389Z,1.65
2023-03-28T06:12:36.624Z,1.58
2023-03-28T06:15:04.513Z,2.80
2023-03-28T06:17:35.470Z,1.45
2023-03-28T06:20:02.268Z,1.48
2023-03-28T06:22:29.839Z,1.58
2023-03-28T06:25:00.880Z,1.48
2023-03-28T06:27:31.914Z,1.42
2023-03-28T06:29:59.985Z,1.60
2023-03-28T06:32:28.421Z,1.48
2023-03-28T06:34:54.973Z,1.38
2023-03-28T06:37:23.537Z,1.55
2023-03-28T06:39:59.969Z,1.90
2023-03-28T06:42:27.171Z,1.45
2023-03-28T06:44:59.771Z,1.65
2023-03-28T06:47:39.305Z,1.50
2023-03-28T06:50:07.793Z,1.63
2023-03-28T06:52:44.180Z,1.10
2023-03-28T06:55:11.304Z,1.63
2023-03-28T06:57:37.998Z,1.60
2023-03-28T07:00:34.507Z,1.27
2023-03-28T07:03:23.912Z,1.30
2023-03-28T07:05:50.710Z,1.20
2023-03-28T07:08:17.406Z,1.55
2023-03-28T07:10:43.925Z,1.17
2023-03-28T07:13:12.251Z,1.30
2023-03-28T07:15:48.487Z,1.20
2023-03-28T07:18:15.461Z,1.27
2023-03-28T07:20:43.050Z,1.60
2023-03-28T07:23:11.974Z,1.20
2023-03-28T07:25:39.113Z,1.50
2023-03-28T07:28:05.862Z,1.40
2023-03-28T07:30:33.552Z,1.17
2023-03-28T07:33:12.463Z,1.33
2023-03-28T07:35:43.827Z,1.50
2023-03-28T07:38:13.036Z,1.35
2023-03-28T07:40:48.985Z,1.40
2023-03-28T07:43:15.645Z,1.83
2023-03-28T07:45:42.182Z,1.38
2023-03-28T07:48:08.758Z,1.20
2023-03-28T07:50:36.557Z,1.10
2023-03-28T07:53:03.094Z,1.25
2023-03-28T07:55:44.889Z,1.10
2023-03-28T07:58:21.284Z,1.17
2023-03-28T08:00:48.037Z,1.10
2023-03-28T08:03:33.789Z,1.10
2023-03-28T08:06:02.786Z,1.15
2023-03-28T08:08:29.952Z,1.02
2023-03-28T08:11:28.940Z,1.20
2023-03-28T08:13:55.581Z,1.67
2023-03-28T08:16:24.839Z,1.85
2023-03-28T08:19:03.534Z,1.55
2023-03-28T08:21:42.688Z,1.00
2023-03-28T08:24:12.837Z,1.00
2023-03-28T08:26:54.131Z,0.90
2023-03-28T08:29:20.744Z,1.17
2023-03-28T08:31:48.056Z,1.50
2023-03-28T08:34:15.704Z,1.10
2023-03-28T08:36:43.296Z,1.10
2023-03-28T08:39:21.933Z,1.17
2023-03-28T08:42:10.553Z,0.90
2023-03-28T08:45:01.793Z,0.80
2023-03-28T08:47:33.550Z,1.10
2023-03-28T08:50:09.728Z,1.13
2023-03-28T08:52:38.541Z,0.93
2023-03-28T08:55:11.354Z,1.33
2023-03-28T08:57:38.935Z,0.77
2023-03-28T09:00:09.887Z,0.82
2023-03-28T09:02:38.443Z,0.85
2023-03-28T09:05:21.997Z,1.23
2023-03-28T09:08:19.262Z,0.98
2023-03-28T09:11:10.201Z,0.60
2023-03-28T09:13:57.709Z,0.80
2023-03-28T09:16:55.491Z,0.93
2023-03-28T09:19:46.886Z,0.70
2023-03-28T09:22:40.202Z,0.60
2023-03-28T09:25:32.598Z,0.60
2023-03-28T09:28:12.730Z,0.93
2023-03-28T09:30:43.821Z,0.40
2023-03-28T09:35:47.224Z,0.60
2023-03-28T09:38:24.879Z,0.80
2023-03-28T09:40:54.637Z,0.70
2023-03-28T09:43:53.999Z,0.70
2023-03-28T09:46:53.795Z,1.00
2023-03-28T09:49:24.854Z,0.60
2023-03-28T09:51:58.575Z,0.70
2023-03-28T09:54:31.212Z,0.57
2023-03-28T09:57:03.432Z,0.85
2023-03-28T09:59:57.585Z,0.50
2023-03-28T10:02:30.442Z,0.70
2023-03-28T10:05:01.181Z,1.20
2023-03-28T10:07:45.026Z,0.52
2023-03-28T10:10:30.786Z,0.70
2023-03-28T10:13:04.838Z,0.50
2023-03-28T10:15:40.119Z,0.73
2023-03-28T10:18:22.428Z,0.63
2023-03-28T10:21:11.781Z,0.68
2023-03-28T10:23:41.487Z,0.68
2023-03-28T10:26:09.786Z,0.57
2023-03-28T10:28:37.440Z,1.00
2023-03-28T10:31:04.832Z,0.70
2023-03-28T10:33:37.452Z,0.50
2023-03-28T10:36:32.928Z,0.60
2023-03-28T10:39:23.778Z,0.65
2023-03-28T10:42:11.032Z,0.90
2023-03-28T10:45:00.197Z,0.60
2023-03-28T10:47:29.491Z,1.42
2023-03-28T10:50:21.430Z,0.68
2023-03-28T10:53:03.196Z,0.60
2023-03-28T10:55:58.767Z,0.70
2023-03-28T10:59:06.518Z,0.60
2023-03-28T11:01:43.835Z,0.63
2023-03-28T11:04:16.849Z,0.50
2023-03-28T11:06:51.610Z,0.50
2023-03-28T11:09:33.851Z,0.50
2023-03-28T11:12:40.936Z,0.70
2023-03-28T11:15:36.822Z,0.60
2023-03-28T11:18:45.796Z,0.43
2023-03-28T11:21:49.621Z,0.90
2023-03-28T11:24:27.861Z,0.80
2023-03-28T11:27:25.831Z,0.70
2023-03-28T11:30:06.684Z,0.73
2023-03-28T11:38:04.521Z,0.65
2023-03-28T11:40:45.906Z,0.60
2023-03-28T11:43:28.246Z,0.50
2023-03-28T11:45:59.902Z,0.68
2023-03-28T11:48:32.264Z,0.60
2023-03-28T11:51:14.747Z,1.27
2023-03-28T11:54:16.801Z,0.68
2023-03-28T11:57:01.837Z,0.50
2023-03-28T11:59:40.464Z,0.63
2023-03-28T12:02:30.248Z,0.70
2023-03-28T12:05:16.607Z,0.60
2023-03-28T12:07:50.496Z,0.68
2023-03-28T12:10:36.403Z,0.60
2023-03-28T12:13:15.219Z,0.50
2023-03-28T12:15:58.275Z,0.75
2023-03-28T12:18:34.417Z,0.60
2023-03-28T12:21:11.710Z,0.63
2023-03-28T12:23:55.788Z,0.52
2023-03-28T12:27:07.987Z,0.40
2023-03-28T12:29:44.129Z,1.40
2023-03-28T12:32:44.480Z,0.60
2023-03-28T12:35:22.818Z,0.60
2023-03-28T12:38:22.723Z,0.63
2023-03-28T12:41:05.939Z,0.50
2023-03-28T12:43:49.691Z,0.70
2023-03-28T12:46:25.985Z,0.70
2023-03-28T12:49:02.467Z,0.90
2023-03-28T12:51:38.794Z,0.50
2023-03-28T12:54:15.689Z,0.50
2023-03-28T12:57:07.130Z,0.60
2023-03-28T12:59:40.063Z,0.50
2023-03-28T13:02:24.367Z,0.60
2023-03-28T13:05:13.429Z,0.40
2023-03-28T13:07:52.626Z,0.50
2023-03-28T13:10:29.732Z,0.40
2023-03-28T13:13:13.398Z,0.70
2023-03-28T13:16:03.097Z,0.50
2023-03-28T13:18:31.999Z,0.50
2023-03-28T13:21:00.410Z,0.70
2023-03-28T13:23:30.484Z,0.50
2023-03-28T13:25:59.122Z,0.65
2023-03-28T13:28:59.163Z,0.47
2023-03-28T13:31:26.505Z,0.70
2023-03-28T13:33:58.338Z,0.73
2023-03-28T13:36:27.622Z,0.90
2023-03-28T13:39:09.717Z,0.60
2023-03-28T13:41:55.395Z,0.57
2023-03-28T13:44:30.963Z,1.30
2023-03-28T13:46:57.574Z,0.90
2023-03-28T13:49:48.386Z,0.50
2023-03-28T13:52:23.405Z,0.68
2023-03-28T13:54:54.386Z,0.50
2023-03-28T13:57:27.380Z,0.50
2023-03-28T14:00:00.917Z,0.70
2023-03-28T14:02:43.946Z,0.45
2023-03-28T14:05:15.544Z,0.73
2023-03-28T14:07:42.075Z,0.50
2023-03-28T14:10:35.970Z,0.80
2023-03-28T14:13:07.892Z,0.70
2023-03-28T14:15:36.429Z,0.55
2023-03-28T14:18:03.698Z,0.57
2023-03-28T14:20:32.683Z,0.50
2023-03-28T14:23:01.293Z,0.55
2023-03-28T14:25:28.661Z,0.52
2023-03-28T14:27:56.392Z,0.50
2023-03-28T14:30:32.074Z,0.50
2023-03-28T14:33:01.313Z,0.70
2023-03-28T14:35:35.395Z,0.50
2023-03-28T14:38:06.702Z,0.90
2023-03-28T14:40:36.435Z,0.57
2023-03-28T14:43:06.262Z,0.57
2023-03-28T14:46:02.886Z,0.50
2023-03-28T14:48:29.775Z,0.50
2023-03-28T14:50:56.950Z,0.60
2023-03-28T14:53:25.384Z,0.60
2023-03-28T14:55:54.520Z,1.00
2023-03-28T14:58:24.528Z,1.15
2023-03-28T15:00:58.247Z,0.70
2023-03-28T15:03:33.939Z,0.80
2023-03-28T15:06:00.973Z,1.00
2023-03-28T15:08:34.626Z,0.73
2023-03-28T15:11:03.947Z,1.40
2023-03-28T15:13:33.854Z,0.88
2023-03-28T15:16:00.636Z,1.42
2023-03-28T15:18:33.602Z,1.00
2023-03-28T15:21:02.010Z,1.00
2023-03-28T15:23:35.076Z,1.00
2023-03-28T15:26:09.539Z,1.80
2023-03-28T15:28:36.117Z,0.80
2023-03-28T15:31:04.027Z,1.15
2023-03-28T15:33:34.278Z,0.85
2023-03-28T15:36:08.534Z,1.10
2023-03-28T15:38:40.467Z,1.00
2023-03-28T15:41:23.528Z,1.10
2023-03-28T15:43:52.674Z,0.95
2023-03-28T15:46:21.394Z,0.80
2023-03-28T15:48:48.902Z,1.35
2023-03-28T15:51:17.694Z,1.08
2023-03-28T15:53:48.411Z,1.52
2023-03-28T15:56:28.662Z,0.90
2023-03-28T15:59:00.398Z,0.90
2023-03-28T16:01:29.482Z,0.90
2023-03-28T16:04:24.746Z,1.00
2023-03-28T16:07:12.407Z,2.22
2023-03-28T16:09:43.019Z,1.00
2023-03-28T16:12:14.347Z,1.98
2023-03-28T16:14:46.749Z,1.33
2023-03-28T16:17:25.084Z,1.10
2023-03-28T16:20:02.319Z,1.08
2023-03-28T16:22:29.125Z,1.10
2023-03-28T16:24:55.645Z,1.40
2023-03-28T16:27:22.363Z,1.13
2023-03-28T16:29:49.142Z,1.15
2023-03-28T16:32:16.420Z,1.05
2023-03-28T16:34:43.441Z,1.30
2023-03-28T16:37:10.498Z,1.40
2023-03-28T16:39:41.422Z,1.00
2023-03-28T16:42:07.961Z,0.93
2023-03-28T16:44:34.934Z,1.10
2023-03-28T16:47:02.431Z,1.40
2023-03-28T16:49:29.258Z,1.10
2023-03-28T16:51:56.276Z,1.27
2023-03-28T16:54:23.482Z,1.10
2023-03-28T16:56:50.294Z,1.48
2023-03-28T16:59:16.831Z,1.13
2023-03-28T17:01:46.169Z,1.20
2023-03-28T17:04:12.893Z,1.48
2023-03-28T17:06:39.426Z,2.10
2023-03-28T17:09:06.771Z,1.50
2023-03-28T17:11:33.348Z,1.48
2023-03-28T17:13:59.976Z,2.33
2023-03-28T17:16:27.238Z,6.93
2023-03-28T17:18:53.842Z,1.63
2023-03-28T17:21:20.797Z,1.58
2023-03-28T17:23:49.021Z,1.80
2023-03-28T17:26:16.221Z,2.30
2023-03-28T17:28:43.477Z,1.67
2023-03-28T17:31:13.617Z,1.30
2023-03-28T17:33:40.670Z,2.05
2023-03-28T17:36:23.271Z,2.28
2023-03-28T17:38:51.345Z,2.38
2023-03-28T17:41:18.352Z,2.25
2023-03-28T17:43:44.922Z,2.55
2023-03-28T17:46:12.798Z,2.90
2023-03-28T17:48:40.185Z,2.67
2023-03-28T17:51:07.724Z,2.60
2023-03-28T17:53:34.354Z,2.67
2023-03-28T17:56:01.705Z,2.30
2023-03-28T17:58:28.640Z,2.38
2023-03-28T18:00:55.187Z,2.00
2023-03-28T18:03:22.570Z,2.33
2023-03-28T18:06:15.231Z,2.00
2023-03-28T18:08:44.601Z,2.00
2023-03-28T18:11:14.402Z,2.40
2023-03-28T18:13:41.463Z,2.72
2023-03-28T18:16:10.881Z,2.53
2023-03-28T18:18:38.360Z,2.20
2023-03-28T18:21:07.497Z,1.80
2023-03-28T18:23:34.882Z,2.53
2023-03-28T18:26:01.686Z,2.20
2023-03-28T18:28:28.407Z,2.88
2023-03-28T18:30:54.976Z,2.20
2023-03-28T18:33:22.123Z,2.58
2023-03-28T18:35:49.028Z,2.53
2023-03-28T18:38:15.907Z,2.92
2023-03-28T18:40:42.533Z,2.60
2023-03-28T18:43:09.527Z,3.45
2023-03-28T18:45:36.384Z,2.55
2023-03-28T18:48:03.514Z,2.30
2023-03-28T18:50:30.127Z,2.47
2023-03-28T18:52:57.419Z,3.42
2023-03-28T18:55:24.186Z,3.40
2023-03-28T18:57:50.700Z,4.30
2023-03-28T19:00:19.041Z,4.47
2023-03-28T19:02:46.861Z,4.03
2023-03-28T19:05:15.384Z,4.78
2023-03-28T19:07:42.926Z,5.38
2023-03-28T19:10:11.710Z,5.22
2023-03-28T19:12:38.305Z,5.57
2023-03-28T19:15:05.944Z,5.65
2023-03-28T19:17:36.380Z,4.75
2023-03-28T19:20:07.871Z,4.15
2023-03-28T19:22:35.156Z,3.58
2023-03-28T19:25:01.831Z,3.58
2023-03-28T19:27:28.343Z,3.85
2023-03-28T19:29:55.030Z,4.95
2023-03-28T19:32:21.545Z,3.90
2023-03-28T19:34:48.060Z,4.95
2023-03-28T19:37:14.571Z,4.00
2023-03-28T19:39:41.130Z,3.85
2023-03-28T19:42:07.597Z,4.65
2023-03-28T19:44:34.122Z,4.93
2023-03-28T19:47:00.795Z,4.68
2023-03-28T19:49:27.375Z,4.03
2023-03-28T19:51:54.484Z,4.90
2023-03-28T19:54:21.481Z,4.85
2023-03-28T19:56:48.669Z,4.68
2023-03-28T19:59:15.195Z,5.55
2023-03-28T20:01:41.823Z,5.22
2023-03-28T20:04:09.621Z,5.22
2023-03-28T20:06:36.662Z,6.00
2023-03-28T20:09:03.538Z,4.97
2023-03-28T20:11:30.106Z,5.70
2023-03-28T20:13:57.228Z,5.07
2023-03-28T20:16:23.799Z,5.35
2023-03-28T20:18:50.311Z,5.22
2023-03-28T20:21:16.858Z,5.05
2023-03-28T20:23:43.340Z,5.35
2023-03-28T20:26:18.673Z,4.80
2023-03-28T20:28:49.717Z,4.63
2023-03-28T20:31:17.641Z,4.82
2023-03-28T20:33:44.947Z,4.63
2023-03-28T20:36:11.499Z,5.05
2023-03-28T20:38:38.563Z,5.20
2023-03-28T20:41:16.088Z,5.10
2023-03-28T20:43:46.961Z,5.25
2023-03-28T20:46:18.996Z,4.85
2023-03-28T20:48:47.004Z,5.80
2023-03-28T20:51:15.890Z,5.40
2023-03-28T20:53:44.385Z,5.90
2023-03-28T20:56:12.059Z,4.93
2023-03-28T20:58:39.212Z,5.00
2023-03-28T21:01:07.244Z,5.20
2023-03-28T21:03:46.507Z,5.35
2023-03-28T21:06:15.660Z,5.35
2023-03-28T21:08:45.695Z,4.88
2023-03-28T21:11:16.390Z,5.72
2023-03-28T21:13:42.955Z,6.93
2023-03-28T21:16:10.449Z,6.45
2023-03-28T21:18:40.160Z,6.32
2023-03-28T21:21:10.920Z,6.05
2023-03-28T21:23:38.946Z,6.10
2023-03-28T21:26:09.562Z,6.15
2023-03-28T21:28:36.571Z,6.35
2023-03-28T21:31:09.005Z,5.95
2023-03-28T21:33:36.723Z,5.75
2023-03-28T21:36:05.050Z,5.97
2023-03-28T21:38:31.558Z,5.10
2023-03-28T21:40:58.088Z,5.32
2023-03-28T21:43:24.665Z,6.50
2023-03-28T21:45:51.211Z,6.50
2023-03-28T21:48:17.787Z,5.53
2023-03-28T21:50:53.237Z,5.63
2023-03-28T21:53:20.759Z,6.10
2023-03-28T21:55:47.427Z,6.63
2023-03-28T21:58:13.971Z,5.57
2023-03-28T22:00:40.767Z,5.35
2023-03-28T22:03:07.652Z,4.85
2023-03-28T22:05:40.112Z,5.20
2023-03-28T22:08:08.862Z,5.47
2023-03-28T22:10:37.485Z,4.95
2023-03-28T22:13:06.677Z,5.07
2023-03-28T22:15:33.262Z,5.40
2023-03-28T22:17:59.838Z,4.63
2023-03-28T22:20:27.875Z,6.70
2023-03-28T22:22:55.039Z,5.70
2023-03-28T22:25:22.621Z,4.63
2023-03-28T22:27:49.275Z,3.83
2023-03-28T22:30:15.860Z,3.95
2023-03-28T22:32:42.564Z,3.75
2023-03-28T22:35:11.101Z,3.85
2023-03-28T22:37:38.137Z,3.97
2023-03-28T22:40:08.346Z,3.90
2023-03-28T22:42:34.839Z,5.22
2023-03-28T22:45:01.775Z,3.97
2023-03-28T22:47:30.252Z,5.05
2023-03-28T22:49:58.164Z,4.40
2023-03-28T22:52:26.187Z,4.20
2023-03-28T22:54:52.993Z,4.55
2023-03-28T22:57:19.660Z,4.10
2023-03-28T22:59:46.667Z,3.92
2023-03-28T23:02:13.270Z,3.88
2023-03-28T23:04:40.177Z,3.50
2023-03-28T23:07:06.988Z,4.78
2023-03-28T23:09:33.466Z,3.83
2023-03-28T23:11:59.999Z,4.00
2023-03-28T23:14:27.313Z,4.70
2023-03-28T23:16:54.097Z,4.22
2023-03-28T23:19:20.608Z,4.15
2023-03-28T23:21:48.377Z,5.65
2023-03-28T23:24:15.046Z,4.80
2023-03-28T23:26:41.545Z,5.60
2023-03-28T23:29:08.062Z,5.05
2023-03-28T23:31:34.603Z,4.38
2023-03-28T23:34:01.115Z,5.45
2023-03-28T23:36:30.184Z,5.35
2023-03-28T23:38:57.544Z,5.68
2023-03-28T23:41:24.022Z,4.40
2023-03-28T23:43:50.679Z,4.80
2023-03-28T23:46:17.256Z,4.55
2023-03-28T23:48:43.807Z,4.28
2023-03-28T23:51:10.452Z,4.60
2023-03-28T23:53:36.949Z,4.40
2023-03-28T23:56:03.817Z,4.90
2023-03-28T23:58:30.352Z,4.60
